Ralph Wenz Field
KPNA : rendu visible

Aérodrome :











RETROUVEZ-NOUS SUR...

 
LOGIN :

S'inscrire | Disclaimer

   EN    FR    IT 

 









Légende :    VFR   VFR Marginal   IFR   IFR Intensif   IFR Très Intensif
Visi : 
Plafond : 
>= 8 km
>= 3000ft
5 à 8 km
1000 à 3000 ft
1500m à 5 km
500 à 1000 ft
800 à 1500m
200 à 500 ft
< 800m
< 200 ft
Symboles :   Orages  Brouillard  Fortes neiges  Fortes précipitations  Vent > 20 kt






- Altitude de l'aérodrome : 7102 ft


KPNA - Ralph Wenz Field

DERNIER METAR :
  • 201115Z AUTO 00000KT 10SM CLR M02/M04 A2974 RMK AO2

METARs EXPIRÉS :
  • 201055Z AUTO 00000KT 10SM CLR M03/M05 A2974 RMK AO2
  • 201035Z AUTO 29003KT 10SM CLR M04/M05 A2974 RMK AO2
  • 201015Z AUTO 33005KT 10SM CLR M03/M04 A2974 RMK AO2
  • 200955Z AUTO 33008KT 10SM CLR M03/M05 A2973 RMK AO2
  • 200935Z AUTO 33003KT 10SM CLR M03/M06 A2974 RMK AO2
  • 200915Z AUTO 32003KT 10SM CLR M03/M05 A2973 RMK AO2
  • 200855Z AUTO 31005KT 10SM CLR M03/M05 A2973 RMK AO2
  • 200835Z AUTO 26004KT 10SM CLR M03/M05 A2973 RMK AO2

TAF KPNA
Valide du 20 à 06h jusqu'au 21 à 06h UTC


200533Z 2006/2106 VRB04KT P6SM BKN100
FM201500 10005KT P6SM BKN040
FM201700 12010KT P6SM VCSH OVC025
FM201800 11010KT 1 1/2SM -SN OVC008
FM210500 13005KT 3SM -SN OVC015 AMD LTD TO CLD VIS AND WIND



MET'MAP, la Météo Aéronautique d'un coup d'oeil ! - Copyright ORBIFLY Décembre 2007 - Disclaimer

ORBIFLY MET'MAP TEAM :

Programmation & Développement : Alexandra Zaïnal
Conception & Développement : Baudouin d'Aumeries
Co-Programmation & Développement : Marc-Olivier Méhu
Soutien technique & logistique : Manuel Goepfert

Contact : metmap@orbifly.com




SOURCES & CREDITS :

   NOAA       Earth
Advisory